createdAt,value
2018-04-25T00:00:20.011Z,4.47
2018-04-25T00:02:47.545Z,5.20
2018-04-25T00:05:15.062Z,5.40
2018-04-25T00:07:42.591Z,7.07
2018-04-25T00:10:10.103Z,4.67
2018-04-25T00:12:38.405Z,4.37
2018-04-25T00:15:06.184Z,6.93
2018-04-25T00:17:33.721Z,4.43
2018-04-25T00:20:01.495Z,3.53
2018-04-25T00:22:29.026Z,4.20
2018-04-25T00:24:56.568Z,11.07
2018-04-25T00:27:25.191Z,4.33
2018-04-25T00:29:52.709Z,4.20
2018-04-25T00:32:20.244Z,6.10
2018-04-25T00:34:48.067Z,5.80
2018-04-25T00:37:15.599Z,4.83
2018-04-25T00:39:43.143Z,4.40
2018-04-25T00:42:10.671Z,5.53
2018-04-25T00:44:38.195Z,3.77
2018-04-25T00:47:05.762Z,4.37
2018-04-25T00:49:33.281Z,4.70
2018-04-25T00:52:00.791Z,5.53
2018-04-25T00:54:28.327Z,9.37
2018-04-25T00:56:55.844Z,9.50
2018-04-25T00:59:23.388Z,7.13
2018-04-25T01:01:51.684Z,5.30
2018-04-25T01:04:19.224Z,5.40
2018-04-25T01:06:47.018Z,6.70
2018-04-25T01:09:14.593Z,8.67
2018-04-25T01:11:42.525Z,6.27
2018-04-25T01:14:09.988Z,7.23
2018-04-25T01:16:37.500Z,7.27
2018-04-25T01:19:05.851Z,8.70
2018-04-25T01:21:34.351Z,4.77
2018-04-25T01:24:01.931Z,6.10
2018-04-25T01:26:29.444Z,5.20
2018-04-25T01:28:56.978Z,6.43
2018-04-25T01:31:31.257Z,6.33
2018-04-25T01:37:03.472Z,4.87
2018-04-25T01:39:41.243Z,5.27
2018-04-25T01:42:16.671Z,6.53
2018-04-25T01:44:45.736Z,4.93
2018-04-25T01:47:38.343Z,7.40
2018-04-25T01:50:14.464Z,5.07
2018-04-25T01:52:54.798Z,5.03
2018-04-25T01:55:34.084Z,6.07
2018-04-25T01:58:13.581Z,6.50
2018-04-25T02:00:53.886Z,7.07
2018-04-25T02:03:33.383Z,13.33
2018-04-25T02:06:01.662Z,5.90
2018-04-25T02:08:29.190Z,5.97
2018-04-25T02:10:56.699Z,5.57
2018-04-25T02:13:24.231Z,6.07
2018-04-25T02:15:51.734Z,5.43
2018-04-25T02:18:19.277Z,6.00
2018-04-25T02:20:46.799Z,4.67
2018-04-25T02:23:14.332Z,6.33
2018-04-25T02:25:41.843Z,5.60
2018-04-25T02:28:09.379Z,9.47
2018-04-25T02:30:36.892Z,6.40
2018-04-25T02:33:04.423Z,6.93
2018-04-25T02:35:31.933Z,6.20
2018-04-25T02:37:59.476Z,5.00
2018-04-25T02:40:27.774Z,6.20
2018-04-25T02:42:55.288Z,5.30
2018-04-25T02:45:22.823Z,5.73
2018-04-25T02:47:50.571Z,4.97
2018-04-25T02:50:18.108Z,7.23
2018-04-25T02:52:45.624Z,5.87
2018-04-25T02:55:13.935Z,6.40
2018-04-25T02:57:41.453Z,7.53
2018-04-25T03:00:09.036Z,6.63
2018-04-25T03:02:36.566Z,9.77
2018-04-25T03:05:04.323Z,5.23
2018-04-25T03:07:31.836Z,5.30
2018-04-25T03:09:59.397Z,12.23
2018-04-25T03:12:26.903Z,6.30
2018-04-25T03:14:55.199Z,8.37
2018-04-25T03:17:22.711Z,8.73
2018-04-25T03:19:50.247Z,6.83
2018-04-25T03:22:17.755Z,6.33
2018-04-25T03:24:46.051Z,5.67
2018-04-25T03:27:13.573Z,7.30
2018-04-25T03:29:41.869Z,7.60
2018-04-25T03:32:09.380Z,7.10
2018-04-25T03:34:36.920Z,10.03
2018-04-25T03:37:05.199Z,8.50
2018-04-25T03:39:32.726Z,7.00
2018-04-25T03:42:00.245Z,7.93
2018-04-25T03:44:28.547Z,5.90
2018-04-25T03:46:56.063Z,5.40
2018-04-25T03:49:23.603Z,14.27
2018-04-25T03:51:51.114Z,10.20
2018-04-25T03:54:18.664Z,6.90
2018-04-25T03:56:46.180Z,6.53
2018-04-25T03:59:13.800Z,7.80
2018-04-25T04:01:41.240Z,6.37
2018-04-25T04:04:08.782Z,8.83
2018-04-25T04:06:36.295Z,7.80
2018-04-25T04:09:03.830Z,9.43
2018-04-25T04:11:31.343Z,8.23
2018-04-25T04:13:59.648Z,11.07
2018-04-25T04:16:27.164Z,8.43
2018-04-25T04:18:55.472Z,11.97
2018-04-25T04:21:22.988Z,10.10
2018-04-25T04:23:50.527Z,18.20
2018-04-25T04:26:18.039Z,11.03
2018-04-25T04:28:45.571Z,9.80
2018-04-25T04:31:13.860Z,12.30
2018-04-25T04:33:41.662Z,11.80
2018-04-25T04:36:09.943Z,15.67
2018-04-25T04:38:37.487Z,14.63
2018-04-25T04:41:05.007Z,18.37
2018-04-25T04:43:32.522Z,13.90
2018-04-25T04:46:00.059Z,16.90
2018-04-25T04:48:27.573Z,15.20
2018-04-25T04:50:55.131Z,19.73
2018-04-25T04:53:22.930Z,19.43
2018-04-25T04:55:50.467Z,13.87
2018-04-25T04:58:17.983Z,12.60
2018-04-25T05:00:46.286Z,14.10
2018-04-25T05:03:13.823Z,16.60
2018-04-25T05:05:42.135Z,12.30
2018-04-25T05:08:09.711Z,15.57
2018-04-25T05:10:37.439Z,14.10
2018-04-25T05:13:04.963Z,14.20
2018-04-25T05:15:33.323Z,15.93
2018-04-25T05:18:00.839Z,18.90
2018-04-25T05:20:28.403Z,13.37
2018-04-25T05:22:55.961Z,14.43
2018-04-25T05:25:23.499Z,14.07
2018-04-25T05:27:51.030Z,16.83
2018-04-25T05:30:19.356Z,15.50
2018-04-25T05:32:46.880Z,16.43
2018-04-25T05:35:14.422Z,16.60
2018-04-25T05:37:42.743Z,25.23
2018-04-25T05:40:10.284Z,12.13
2018-04-25T05:42:37.799Z,11.23
2018-04-25T05:45:06.098Z,11.20
2018-04-25T05:47:33.635Z,12.00
2018-04-25T05:50:01.935Z,11.03
2018-04-25T05:52:29.455Z,13.70
2018-04-25T05:54:56.999Z,15.90
2018-04-25T05:57:24.508Z,11.03
2018-04-25T05:59:52.047Z,12.10
2018-04-25T06:02:19.559Z,14.93
2018-04-25T06:04:47.140Z,13.10
2018-04-25T06:07:15.425Z,14.73
2018-04-25T06:09:42.979Z,9.87
2018-04-25T06:12:11.265Z,10.50
2018-04-25T06:14:39.061Z,10.47
2018-04-25T06:17:06.594Z,11.60
2018-04-25T06:19:34.136Z,10.67
2018-04-25T06:22:01.648Z,12.83
2018-04-25T06:24:29.192Z,11.60
2018-04-25T06:26:56.707Z,13.20
2018-04-25T06:29:24.503Z,11.23
2018-04-25T06:31:52.014Z,18.70
2018-04-25T06:34:20.315Z,12.43
2018-04-25T06:36:47.830Z,12.63
2018-04-25T06:39:15.368Z,12.43
2018-04-25T06:41:42.879Z,9.80
2018-04-25T06:44:10.420Z,12.27
2018-04-25T06:46:37.939Z,11.63
2018-04-25T06:49:05.774Z,14.73
2018-04-25T06:51:33.296Z,11.30
2018-04-25T06:54:00.823Z,8.87
2018-04-25T06:56:28.358Z,11.60
2018-04-25T06:58:55.872Z,14.20
2018-04-25T07:01:23.431Z,11.40
2018-04-25T07:03:51.216Z,9.00
2018-04-25T07:06:18.767Z,9.80
2018-04-25T07:08:46.288Z,10.97
2018-04-25T07:11:14.599Z,13.00
2018-04-25T07:13:42.129Z,11.07
2018-04-25T07:16:09.674Z,11.30
2018-04-25T07:18:37.950Z,9.70
2018-04-25T07:21:06.248Z,9.17
2018-04-25T07:23:33.767Z,10.97
2018-04-25T07:26:02.068Z,8.90
2018-04-25T07:28:29.588Z,11.27
2018-04-25T07:30:57.414Z,9.53
2018-04-25T07:33:24.963Z,10.90
2018-04-25T07:35:52.500Z,9.30
2018-04-25T07:38:20.117Z,11.40
2018-04-25T07:40:47.665Z,26.67
2018-04-25T07:43:15.179Z,16.30
2018-04-25T07:45:42.726Z,10.27
2018-04-25T07:48:10.255Z,12.40
2018-04-25T07:50:38.891Z,9.90
2018-04-25T07:53:06.423Z,13.63
2018-04-25T07:55:33.966Z,10.53
2018-04-25T07:58:02.249Z,9.97
2018-04-25T08:00:29.802Z,13.47
2018-04-25T08:02:57.324Z,11.13
2018-04-25T08:05:24.854Z,11.37
2018-04-25T08:07:52.366Z,8.80
2018-04-25T08:10:20.667Z,13.53
2018-04-25T08:13:00.044Z,9.10
2018-04-25T08:15:39.607Z,10.23
2018-04-25T08:18:19.475Z,12.20
2018-04-25T08:23:45.652Z,10.93
2018-04-25T08:26:13.140Z,9.20
2018-04-25T08:28:41.440Z,10.40
2018-04-25T08:31:08.983Z,10.33
2018-04-25T08:33:37.573Z,8.80
2018-04-25T08:36:05.055Z,9.77
2018-04-25T08:38:32.562Z,13.57
2018-04-25T08:41:00.862Z,12.40
2018-04-25T08:43:28.381Z,10.13
2018-04-25T08:45:55.930Z,10.23
2018-04-25T08:48:23.768Z,11.77
2018-04-25T08:50:51.308Z,10.67
2018-04-25T08:53:18.824Z,11.30
2018-04-25T08:55:47.130Z,9.33
2018-04-25T08:58:14.915Z,11.50
2018-04-25T09:00:42.462Z,10.27
2018-04-25T09:03:10.231Z,11.20
2018-04-25T09:05:37.767Z,13.17
2018-04-25T09:08:05.548Z,10.43
2018-04-25T09:10:33.088Z,11.63
2018-04-25T09:13:00.603Z,14.10
2018-04-25T09:15:28.453Z,8.80
2018-04-25T09:17:55.987Z,17.10
2018-04-25T09:20:23.557Z,11.80
2018-04-25T09:22:51.072Z,11.60
2018-04-25T09:25:18.627Z,16.67
2018-04-25T09:27:46.143Z,11.93
2018-04-25T09:30:13.680Z,8.10
2018-04-25T09:32:41.199Z,15.03
2018-04-25T09:35:08.979Z,14.00
2018-04-25T09:37:38.079Z,9.30
2018-04-25T09:40:05.591Z,10.30
2018-04-25T09:42:33.912Z,8.37
2018-04-25T09:45:02.190Z,14.00
2018-04-25T09:47:30.042Z,16.33
2018-04-25T09:49:57.552Z,9.93
2018-04-25T09:52:25.856Z,8.13
2018-04-25T09:54:53.358Z,9.40
2018-04-25T09:57:20.899Z,9.70
2018-04-25T09:59:48.407Z,9.30
2018-04-25T10:02:21.495Z,5.40
2018-04-25T10:04:49.024Z,9.20
2018-04-25T10:07:17.339Z,7.23
2018-04-25T10:09:44.849Z,7.10
2018-04-25T10:12:12.382Z,8.80
2018-04-25T10:14:39.895Z,6.90
2018-04-25T10:17:07.481Z,10.33
2018-04-25T10:19:34.972Z,8.63
2018-04-25T10:22:02.537Z,9.83
2018-04-25T10:24:30.370Z,6.70
2018-04-25T10:26:57.939Z,13.17
2018-04-25T10:29:25.454Z,10.37
2018-04-25T10:31:53.007Z,8.53
2018-04-25T10:34:20.529Z,8.03
2018-04-25T10:36:48.832Z,5.87
2018-04-25T10:39:16.363Z,6.60
2018-04-25T10:41:44.662Z,5.10
2018-04-25T10:44:12.232Z,12.30
2018-04-25T10:46:40.504Z,10.83
2018-04-25T10:49:08.012Z,6.70
2018-04-25T10:51:35.593Z,12.43
2018-04-25T10:54:03.863Z,8.07
2018-04-25T10:56:32.184Z,5.97
2018-04-25T10:58:59.696Z,8.20
2018-04-25T11:01:28.016Z,9.20
2018-04-25T11:03:55.539Z,6.43
2018-04-25T11:06:23.080Z,14.23
2018-04-25T11:08:51.365Z,11.67
2018-04-25T11:11:19.158Z,6.23
2018-04-25T11:13:46.686Z,5.93
2018-04-25T11:16:14.231Z,12.70
2018-04-25T11:18:42.515Z,10.10
2018-04-25T11:21:10.048Z,7.83
2018-04-25T11:23:38.580Z,10.47
2018-04-25T11:26:06.127Z,7.00
2018-04-25T11:28:33.646Z,9.13
2018-04-25T11:31:01.947Z,6.07
2018-04-25T11:33:29.464Z,9.97
2018-04-25T11:35:57.772Z,6.80
2018-04-25T11:38:25.283Z,6.07
2018-04-25T11:40:52.818Z,6.37
2018-04-25T11:43:20.345Z,6.23
2018-04-25T11:45:47.853Z,9.80
2018-04-25T11:48:16.170Z,9.03
2018-04-25T11:50:43.700Z,10.13
2018-04-25T11:53:12.335Z,10.03
2018-04-25T11:55:39.874Z,6.93
2018-04-25T11:58:07.439Z,9.67
2018-04-25T12:00:34.969Z,8.47
2018-04-25T12:03:02.515Z,9.03
2018-04-25T12:05:30.799Z,7.60
2018-04-25T12:07:58.335Z,10.53
2018-04-25T12:10:26.630Z,7.23
2018-04-25T12:12:54.167Z,9.23
2018-04-25T12:15:22.443Z,6.77
2018-04-25T12:17:50.755Z,7.23
2018-04-25T12:20:18.271Z,11.60
2018-04-25T12:22:46.568Z,5.73
2018-04-25T12:25:14.079Z,7.33
2018-04-25T12:27:41.615Z,8.13
2018-04-25T12:30:09.137Z,6.17
2018-04-25T12:32:36.673Z,5.20
2018-04-25T12:35:04.940Z,6.80
2018-04-25T12:37:32.490Z,5.57
2018-04-25T12:40:00.013Z,6.87
2018-04-25T12:42:27.538Z,10.17
2018-04-25T12:44:55.084Z,9.70
2018-04-25T12:47:23.397Z,4.53
2018-04-25T12:49:50.936Z,4.20
2018-04-25T12:52:18.478Z,7.33
2018-04-25T12:54:46.015Z,3.40
2018-04-25T12:57:14.291Z,4.23
2018-04-25T12:59:42.604Z,7.03
2018-04-25T13:02:10.123Z,6.00
2018-04-25T13:04:38.440Z,2.80
2018-04-25T13:07:05.947Z,2.97
2018-04-25T13:09:34.247Z,2.60
2018-04-25T13:12:01.758Z,4.40
2018-04-25T13:14:29.291Z,4.00
2018-04-25T13:16:57.046Z,2.30
2018-04-25T13:19:24.579Z,3.40
2018-04-25T13:21:52.091Z,3.13
2018-04-25T13:24:19.628Z,6.10
2018-04-25T13:26:47.145Z,3.53
2018-04-25T13:29:14.683Z,2.70
2018-04-25T13:31:42.963Z,5.30
2018-04-25T13:34:11.307Z,3.10
2018-04-25T13:36:38.815Z,2.70
2018-04-25T13:39:06.348Z,2.70
2018-04-25T13:41:34.628Z,3.50
2018-04-25T13:44:02.159Z,3.10
2018-04-25T13:46:30.694Z,2.33
2018-04-25T13:48:58.203Z,2.63
2018-04-25T13:51:26.835Z,1.70
2018-04-25T13:53:54.343Z,2.70
2018-04-25T13:56:22.654Z,2.00
2018-04-25T13:58:50.162Z,1.63
2018-04-25T14:01:17.731Z,2.57
2018-04-25T14:03:46.008Z,2.47
2018-04-25T14:06:14.391Z,1.70
2018-04-25T14:08:41.831Z,1.97
2018-04-25T14:11:10.172Z,1.87
2018-04-25T14:13:37.688Z,3.13
2018-04-25T14:16:05.227Z,2.00
2018-04-25T14:18:33.508Z,1.90
2018-04-25T14:21:01.040Z,2.17
2018-04-25T14:23:28.551Z,2.10
2018-04-25T14:25:56.099Z,2.20
2018-04-25T14:28:23.603Z,2.57
2018-04-25T14:30:51.144Z,4.27
2018-04-25T14:33:18.661Z,2.30
2018-04-25T14:35:46.199Z,2.27
2018-04-25T14:38:13.723Z,2.47
2018-04-25T14:40:41.231Z,2.07
2018-04-25T14:43:08.768Z,2.67
2018-04-25T14:45:37.095Z,2.40
2018-04-25T14:48:05.390Z,3.43
2018-04-25T14:50:32.905Z,2.53
2018-04-25T14:53:00.431Z,2.47
2018-04-25T14:55:28.251Z,2.00
2018-04-25T14:57:56.093Z,2.40
2018-04-25T15:00:23.620Z,1.73
2018-04-25T15:02:51.161Z,1.80
2018-04-25T15:05:19.448Z,2.40
2018-04-25T15:07:46.985Z,2.20
2018-04-25T15:10:15.271Z,2.40
2018-04-25T15:12:42.806Z,1.60
2018-04-25T15:15:10.325Z,2.90
2018-04-25T15:17:37.851Z,1.80
2018-04-25T15:20:05.396Z,1.93
2018-04-25T15:22:33.679Z,7.50
2018-04-25T15:25:01.208Z,1.83
2018-04-25T15:27:29.515Z,1.63
2018-04-25T15:29:57.037Z,1.93
2018-04-25T15:32:25.437Z,3.07
2018-04-25T15:34:53.947Z,2.40
2018-04-25T15:37:21.504Z,2.20
2018-04-25T15:39:49.041Z,1.80
2018-04-25T15:42:16.578Z,1.53
2018-04-25T15:44:44.858Z,1.83
2018-04-25T15:47:12.390Z,2.07
2018-04-25T15:49:39.912Z,1.80
2018-04-25T15:52:07.444Z,1.57
2018-04-25T15:54:34.978Z,1.50
2018-04-25T15:57:03.291Z,5.47
2018-04-25T15:59:30.808Z,1.60
2018-04-25T16:01:59.108Z,1.83
2018-04-25T16:04:26.620Z,1.53
2018-04-25T16:06:54.154Z,1.47
2018-04-25T16:09:21.663Z,2.43
2018-04-25T16:11:49.467Z,1.40
2018-04-25T16:14:16.996Z,1.50
2018-04-25T16:16:44.525Z,2.70
2018-04-25T16:19:12.799Z,1.60
2018-04-25T16:21:41.074Z,2.93
2018-04-25T16:24:09.370Z,4.03
2018-04-25T16:26:36.906Z,4.53
2018-04-25T16:29:04.702Z,1.63
2018-04-25T16:31:32.207Z,2.50
2018-04-25T16:34:00.524Z,2.10
2018-04-25T16:36:28.094Z,4.43
2018-04-25T16:38:55.741Z,8.10
2018-04-25T16:41:23.256Z,4.07
2018-04-25T16:43:51.564Z,2.50
2018-04-25T16:46:19.073Z,3.37
2018-04-25T16:48:46.611Z,3.10
2018-04-25T16:51:14.124Z,2.87
2018-04-25T16:53:41.674Z,5.07
2018-04-25T16:56:09.188Z,2.50
2018-04-25T16:58:36.787Z,3.50
2018-04-25T17:01:04.322Z,10.40
2018-04-25T17:03:32.631Z,3.90
2018-04-25T17:06:00.300Z,2.93
2018-04-25T17:08:27.861Z,4.07
2018-04-25T17:10:55.371Z,6.37
2018-04-25T17:13:23.683Z,3.60
2018-04-25T17:15:51.205Z,5.33
2018-04-25T17:18:19.837Z,5.60
2018-04-25T17:20:47.351Z,5.83
2018-04-25T17:23:15.660Z,5.60
2018-04-25T17:25:43.215Z,4.60
2018-04-25T17:28:10.794Z,3.40
2018-04-25T17:30:38.276Z,2.77
2018-04-25T17:33:05.810Z,2.80
2018-04-25T17:35:33.319Z,7.67
2018-04-25T17:38:00.854Z,4.30
2018-04-25T17:40:29.135Z,2.50
2018-04-25T17:42:57.461Z,6.20
2018-04-25T17:45:25.311Z,3.37
2018-04-25T17:47:52.851Z,7.20
2018-04-25T17:50:20.367Z,3.50
2018-04-25T17:52:47.902Z,4.83
2018-04-25T17:55:15.434Z,3.77
2018-04-25T17:57:42.967Z,3.37
2018-04-25T18:00:10.507Z,2.60
2018-04-25T18:02:38.808Z,2.90
2018-04-25T18:05:06.326Z,5.60
2018-04-25T18:07:34.641Z,3.00
2018-04-25T18:10:02.224Z,3.50
2018-04-25T18:12:29.736Z,2.97
2018-04-25T18:14:57.283Z,4.83
2018-04-25T18:17:24.817Z,3.27
2018-04-25T18:19:52.351Z,6.00
2018-04-25T18:22:20.229Z,4.37
2018-04-25T18:24:47.750Z,3.10
2018-04-25T18:27:15.267Z,6.23
2018-04-25T18:29:42.831Z,3.50
2018-04-25T18:32:11.108Z,6.00
2018-04-25T18:34:38.757Z,4.10
2018-04-25T18:37:07.049Z,4.30
2018-04-25T18:39:34.590Z,6.07
2018-04-25T18:42:02.867Z,6.60
2018-04-25T18:44:31.181Z,8.53
2018-04-25T18:46:58.947Z,14.03
2018-04-25T18:49:26.563Z,7.93
2018-04-25T18:51:54.072Z,5.93
2018-04-25T18:54:21.614Z,5.47
2018-04-25T18:56:49.131Z,5.40
2018-04-25T18:59:17.435Z,3.97
2018-04-25T19:01:44.945Z,4.77
2018-04-25T19:04:12.484Z,6.40
2018-04-25T19:06:39.997Z,3.80
2018-04-25T19:09:07.526Z,5.47
2018-04-25T19:11:35.811Z,4.80
2018-04-25T19:14:03.607Z,8.23
2018-04-25T19:16:31.124Z,6.90
2018-04-25T19:18:58.663Z,5.50
2018-04-25T19:21:26.943Z,7.20
2018-04-25T19:23:55.249Z,6.77
2018-04-25T19:26:22.763Z,4.00
2018-04-25T19:28:50.294Z,4.10
2018-04-25T19:31:17.820Z,4.20
2018-04-25T19:33:45.356Z,3.73
2018-04-25T19:36:13.151Z,4.07
2018-04-25T19:38:40.682Z,4.07
2018-04-25T19:41:08.190Z,4.30
2018-04-25T19:43:35.723Z,4.33
2018-04-25T19:46:03.239Z,4.23
2018-04-25T19:48:30.784Z,3.60
2018-04-25T19:50:58.306Z,5.20
2018-04-25T19:53:25.850Z,4.23
2018-04-25T19:55:53.367Z,4.30
2018-04-25T19:58:20.916Z,4.37
2018-04-25T20:00:49.203Z,4.00
2018-04-25T20:03:16.740Z,4.03
2018-04-25T20:05:44.253Z,5.80
2018-04-25T20:08:11.980Z,6.17
2018-04-25T20:10:39.490Z,3.83
2018-04-25T20:13:07.097Z,6.53
2018-04-25T20:15:34.613Z,5.50
2018-04-25T20:18:02.199Z,5.33
2018-04-25T20:20:29.800Z,7.27
2018-04-25T20:22:57.311Z,5.93
2018-04-25T20:25:24.847Z,7.80
2018-04-25T20:27:53.146Z,10.00
2018-04-25T20:30:20.936Z,5.27
2018-04-25T20:32:48.447Z,6.23
2018-04-25T20:35:16.743Z,4.70
2018-04-25T20:37:44.259Z,5.20
2018-04-25T20:40:11.794Z,4.47
2018-04-25T20:42:39.310Z,5.37
2018-04-25T20:45:06.844Z,5.20
2018-04-25T20:47:35.118Z,4.67
2018-04-25T20:50:03.414Z,5.67
2018-04-25T20:52:30.935Z,4.33
2018-04-25T20:54:58.472Z,11.57
2018-04-25T20:57:25.987Z,5.13
2018-04-25T20:59:53.872Z,9.37
2018-04-25T21:02:21.581Z,4.80
2018-04-25T21:04:49.883Z,3.93
2018-04-25T21:07:17.623Z,3.17
2018-04-25T21:09:45.970Z,4.33
2018-04-25T21:12:13.479Z,3.63
2018-04-25T21:14:41.441Z,5.73
2018-04-25T21:17:09.203Z,4.50
2018-04-25T21:19:37.295Z,3.33
2018-04-25T21:22:05.151Z,4.00
2018-04-25T21:24:32.688Z,4.10
2018-04-25T21:27:00.194Z,5.97
2018-04-25T21:29:28.931Z,6.60
2018-04-25T21:31:56.731Z,4.90
2018-04-25T21:34:24.497Z,4.33
2018-04-25T21:36:52.014Z,4.00
2018-04-25T21:39:19.554Z,5.70
2018-04-25T21:41:47.062Z,4.30
2018-04-25T21:44:14.592Z,5.33
2018-04-25T21:46:42.095Z,4.00
2018-04-25T21:49:09.641Z,7.20
2018-04-25T21:51:37.478Z,5.23
2018-04-25T21:54:05.240Z,4.10
2018-04-25T21:56:32.790Z,5.73
2018-04-25T21:59:00.331Z,8.33
2018-04-25T22:01:27.847Z,9.07
2018-04-25T22:03:55.379Z,5.97
2018-04-25T22:06:22.891Z,6.83
2018-04-25T22:08:50.432Z,3.33
2018-04-25T22:11:18.708Z,4.40
2018-04-25T22:13:47.010Z,3.93
2018-04-25T22:16:14.518Z,3.07
2018-04-25T22:18:42.343Z,3.80
2018-04-25T22:21:09.847Z,3.43
2018-04-25T22:23:38.143Z,3.33
2018-04-25T22:26:05.647Z,3.60
2018-04-25T22:28:33.188Z,3.37
2018-04-25T22:31:01.489Z,7.20
2018-04-25T22:33:29.012Z,4.40
2018-04-25T22:35:56.542Z,5.23
2018-04-25T22:38:24.336Z,4.03
2018-04-25T22:40:52.229Z,4.10
2018-04-25T22:43:19.919Z,6.23
2018-04-25T22:45:50.439Z,3.50
2018-04-25T22:48:18.725Z,3.40
2018-04-25T22:50:46.289Z,3.03
2018-04-25T22:53:13.802Z,3.97
2018-04-25T22:55:41.331Z,3.90
2018-04-25T22:58:08.847Z,7.17
2018-04-25T23:00:36.388Z,3.27
2018-04-25T23:03:04.664Z,3.90
2018-04-25T23:05:32.992Z,4.73
2018-04-25T23:08:00.509Z,2.60
2018-04-25T23:10:28.047Z,3.17
2018-04-25T23:12:56.318Z,6.17
2018-04-25T23:15:23.874Z,3.77
2018-04-25T23:17:51.387Z,6.70
2018-04-25T23:20:18.920Z,3.27
2018-04-25T23:22:46.433Z,6.33
2018-04-25T23:25:13.971Z,8.40
2018-04-25T23:27:41.509Z,3.20
2018-04-25T23:30:09.048Z,1.90
2018-04-25T23:32:36.567Z,1.70
2018-04-25T23:35:04.882Z,2.40
2018-04-25T23:37:32.400Z,2.43
2018-04-25T23:40:00.703Z,3.33
2018-04-25T23:42:28.247Z,3.90
2018-04-25T23:44:56.638Z,3.43
2018-04-25T23:47:24.282Z,3.13
2018-04-25T23:49:52.736Z,3.93
2018-04-25T23:52:20.252Z,3.30
2018-04-25T23:54:47.785Z,2.93
2018-04-25T23:57:15.294Z,1.40
2018-04-25T23:59:42.831Z,4.27
